sensor_id;sensor_type;location;lat;lon;timestamp;pressure;altitude;pressure_sealevel;temperature;humidity
78313;BME280;67568;47.438;21.408;2023-04-24T00:01:47;99990.66;;;11.50;58.00
78313;BME280;67568;47.438;21.408;2023-04-24T00:04:13;99983.44;;;11.49;57.86
78313;BME280;67568;47.438;21.408;2023-04-24T00:06:40;99981.31;;;11.46;58.72
78313;BME280;67568;47.438;21.408;2023-04-24T00:09:07;99980.63;;;11.40;58.54
78313;BME280;67568;47.438;21.408;2023-04-24T00:11:37;99981.88;;;11.34;58.97
78313;BME280;67568;47.438;21.408;2023-04-24T00:14:03;99977.78;;;11.32;59.25
78313;BME280;67568;47.438;21.408;2023-04-24T00:16:30;99980.03;;;11.30;59.36
78313;BME280;67568;47.438;21.408;2023-04-24T00:18:57;99985.59;;;11.30;59.10
78313;BME280;67568;47.438;21.408;2023-04-24T00:21:23;99982.22;;;11.33;59.15
78313;BME280;67568;47.438;21.408;2023-04-24T00:23:50;99979.88;;;11.26;59.16
78313;BME280;67568;47.438;21.408;2023-04-24T00:26:19;99979.00;;;11.17;59.88
78313;BME280;67568;47.438;21.408;2023-04-24T00:28:46;99980.13;;;11.16;60.14
78313;BME280;67568;47.438;21.408;2023-04-24T00:31:12;99976.03;;;11.13;59.74
78313;BME280;67568;47.438;21.408;2023-04-24T00:33:39;99968.03;;;11.12;60.56
78313;BME280;67568;47.438;21.408;2023-04-24T00:36:06;99964.13;;;11.13;60.18
78313;BME280;67568;47.438;21.408;2023-04-24T00:38:32;99965.06;;;11.08;59.57
78313;BME280;67568;47.438;21.408;2023-04-24T00:40:59;99957.63;;;10.95;60.72
78313;BME280;67568;47.438;21.408;2023-04-24T00:43:25;99957.75;;;10.90;60.36
78313;BME280;67568;47.438;21.408;2023-04-24T00:45:52;99956.22;;;10.84;61.53
78313;BME280;67568;47.438;21.408;2023-04-24T00:48:20;99950.81;;;10.78;60.79
78313;BME280;67568;47.438;21.408;2023-04-24T00:50:47;99954.09;;;10.80;60.36
78313;BME280;67568;47.438;21.408;2023-04-24T00:53:14;99945.88;;;10.75;61.91
78313;BME280;67568;47.438;21.408;2023-04-24T00:55:40;99953.31;;;10.66;61.19
78313;BME280;67568;47.438;21.408;2023-04-24T00:58:07;99947.47;;;10.68;60.58
78313;BME280;67568;47.438;21.408;2023-04-24T01:00:34;99953.44;;;10.61;61.49
78313;BME280;67568;47.438;21.408;2023-04-24T01:03:04;99942.06;;;10.49;61.57
78313;BME280;67568;47.438;21.408;2023-04-24T01:05:31;99943.63;;;10.41;62.04
78313;BME280;67568;47.438;21.408;2023-04-24T01:07:59;99945.19;;;10.47;62.06
78313;BME280;67568;47.438;21.408;2023-04-24T01:10:27;99951.13;;;10.41;61.07
78313;BME280;67568;47.438;21.408;2023-04-24T01:12:55;99950.38;;;10.49;61.94
78313;BME280;67568;47.438;21.408;2023-04-24T01:15:22;99943.59;;;10.55;61.50
78313;BME280;67568;47.438;21.408;2023-04-24T01:17:48;99947.09;;;10.47;61.14
78313;BME280;67568;47.438;21.408;2023-04-24T01:20:15;99943.22;;;10.48;61.65
78313;BME280;67568;47.438;21.408;2023-04-24T01:22:43;99949.56;;;10.48;61.38
78313;BME280;67568;47.438;21.408;2023-04-24T01:25:09;99942.59;;;10.51;61.29
78313;BME280;67568;47.438;21.408;2023-04-24T01:27:36;99943.84;;;10.45;62.19
78313;BME280;67568;47.438;21.408;2023-04-24T01:30:03;99941.38;;;10.43;61.36
78313;BME280;67568;47.438;21.408;2023-04-24T01:32:30;99937.28;;;10.41;62.76
78313;BME280;67568;47.438;21.408;2023-04-24T01:34:57;99936.47;;;10.40;61.87
78313;BME280;67568;47.438;21.408;2023-04-24T01:37:24;99944.47;;;10.42;62.32
78313;BME280;67568;47.438;21.408;2023-04-24T01:39:50;99938.94;;;10.42;61.64
78313;BME280;67568;47.438;21.408;2023-04-24T01:42:17;99934.63;;;10.35;63.16
78313;BME280;67568;47.438;21.408;2023-04-24T01:44:44;99930.72;;;10.37;62.97
78313;BME280;67568;47.438;21.408;2023-04-24T01:47:11;99930.31;;;10.29;63.17
78313;BME280;67568;47.438;21.408;2023-04-24T01:49:38;99925.19;;;10.23;63.04
78313;BME280;67568;47.438;21.408;2023-04-24T01:52:05;99922.34;;;10.14;63.18
78313;BME280;67568;47.438;21.408;2023-04-24T01:54:32;99928.25;;;10.07;63.97
78313;BME280;67568;47.438;21.408;2023-04-24T01:56:59;99924.50;;;10.03;64.65
78313;BME280;67568;47.438;21.408;2023-04-24T01:59:27;99918.13;;;10.03;64.53
78313;BME280;67568;47.438;21.408;2023-04-24T02:01:54;99922.13;;;10.10;63.64
78313;BME280;67568;47.438;21.408;2023-04-24T02:04:21;99920.47;;;10.09;63.16
78313;BME280;67568;47.438;21.408;2023-04-24T02:06:48;99918.22;;;10.11;62.82
78313;BME280;67568;47.438;21.408;2023-04-24T02:09:14;99919.03;;;10.12;63.08
78313;BME280;67568;47.438;21.408;2023-04-24T02:11:41;99917.72;;;10.09;63.38
78313;BME280;67568;47.438;21.408;2023-04-24T02:14:07;99907.88;;;9.89;64.49
78313;BME280;67568;47.438;21.408;2023-04-24T02:16:34;99915.78;;;9.96;64.53
78313;BME280;67568;47.438;21.408;2023-04-24T02:19:01;99910.25;;;9.96;64.16
78313;BME280;67568;47.438;21.408;2023-04-24T02:21:28;99907.69;;;10.00;63.53
78313;BME280;67568;47.438;21.408;2023-04-24T02:23:55;99900.72;;;10.02;64.27
78313;BME280;67568;47.438;21.408;2023-04-24T02:26:21;99898.97;;;10.06;64.11
78313;BME280;67568;47.438;21.408;2023-04-24T02:28:48;99895.81;;;9.99;64.25
78313;BME280;67568;47.438;21.408;2023-04-24T02:31:15;99896.72;;;9.95;64.43
78313;BME280;67568;47.438;21.408;2023-04-24T02:33:41;99894.06;;;9.89;63.97
78313;BME280;67568;47.438;21.408;2023-04-24T02:36:08;99893.03;;;9.85;64.57
78313;BME280;67568;47.438;21.408;2023-04-24T02:38:35;99877.44;;;9.89;65.45
78313;BME280;67568;47.438;21.408;2023-04-24T02:41:01;99883.50;;;9.91;64.12
78313;BME280;67568;47.438;21.408;2023-04-24T02:43:28;99885.22;;;9.87;64.32
78313;BME280;67568;47.438;21.408;2023-04-24T02:45:54;99887.41;;;9.90;64.30
78313;BME280;67568;47.438;21.408;2023-04-24T02:48:21;99879.09;;;9.90;64.74
78313;BME280;67568;47.438;21.408;2023-04-24T02:50:48;99879.09;;;9.90;64.17
78313;BME280;67568;47.438;21.408;2023-04-24T02:53:14;99884.50;;;9.96;65.06
78313;BME280;67568;47.438;21.408;2023-04-24T02:55:41;99880.03;;;9.86;65.14
78313;BME280;67568;47.438;21.408;2023-04-24T02:58:07;99878.06;;;9.86;65.53
78313;BME280;67568;47.438;21.408;2023-04-24T03:00:34;99884.56;;;9.82;65.27
78313;BME280;67568;47.438;21.408;2023-04-24T03:03:01;99873.78;;;9.80;64.31
78313;BME280;67568;47.438;21.408;2023-04-24T03:05:27;99877.47;;;9.76;64.66
78313;BME280;67568;47.438;21.408;2023-04-24T03:07:54;99879.94;;;9.77;65.93
78313;BME280;67568;47.438;21.408;2023-04-24T03:10:23;99876.25;;;9.82;65.01
78313;BME280;67568;47.438;21.408;2023-04-24T03:12:52;99880.75;;;9.78;65.88
78313;BME280;67568;47.438;21.408;2023-04-24T03:15:18;99886.47;;;9.81;65.84
78313;BME280;67568;47.438;21.408;2023-04-24T03:17:46;99888.44;;;9.81;64.33
78313;BME280;67568;47.438;21.408;2023-04-24T03:20:13;99885.03;;;9.70;66.44
78313;BME280;67568;47.438;21.408;2023-04-24T03:22:39;99882.78;;;9.72;65.18
78313;BME280;67568;47.438;21.408;2023-04-24T03:25:06;99882.28;;;9.70;66.39
78313;BME280;67568;47.438;21.408;2023-04-24T03:27:33;99879.31;;;9.66;66.26
78313;BME280;67568;47.438;21.408;2023-04-24T03:29:59;99884.03;;;9.66;66.03
78313;BME280;67568;47.438;21.408;2023-04-24T03:32:26;99887.13;;;9.51;66.73
78313;BME280;67568;47.438;21.408;2023-04-24T03:34:53;99887.13;;;9.51;66.09
78313;BME280;67568;47.438;21.408;2023-04-24T03:37:20;99885.25;;;9.60;66.58
78313;BME280;67568;47.438;21.408;2023-04-24T03:39:46;99884.03;;;9.66;65.55
78313;BME280;67568;47.438;21.408;2023-04-24T03:42:13;99891.28;;;9.62;66.83
78313;BME280;67568;47.438;21.408;2023-04-24T03:44:40;99879.84;;;9.55;66.02
78313;BME280;67568;47.438;21.408;2023-04-24T03:47:06;99888.84;;;9.60;65.78
78313;BME280;67568;47.438;21.408;2023-04-24T03:49:33;99888.53;;;9.62;65.87
78313;BME280;67568;47.438;21.408;2023-04-24T03:52:00;99890.66;;;9.79;65.47
78313;BME280;67568;47.438;21.408;2023-04-24T03:54:27;99892.00;;;9.81;65.40
78313;BME280;67568;47.438;21.408;2023-04-24T03:56:54;99887.00;;;9.83;65.66
78313;BME280;67568;47.438;21.408;2023-04-24T03:59:20;99886.06;;;9.88;65.93
78313;BME280;67568;47.438;21.408;2023-04-24T04:01:47;99884.22;;;9.97;64.77
78313;BME280;67568;47.438;21.408;2023-04-24T04:04:13;99888.69;;;10.07;66.51
78313;BME280;67568;47.438;21.408;2023-04-24T04:06:43;99888.59;;;10.12;66.56
78313;BME280;67568;47.438;21.408;2023-04-24T04:09:10;99882.06;;;10.08;66.83
78313;BME280;67568;47.438;21.408;2023-04-24T04:11:39;99881.91;;;10.13;66.63
78313;BME280;67568;47.438;21.408;2023-04-24T04:14:06;99887.03;;;10.20;65.56
78313;BME280;67568;47.438;21.408;2023-04-24T04:16:32;99888.88;;;10.24;65.91
78313;BME280;67568;47.438;21.408;2023-04-24T04:18:59;99890.94;;;10.32;64.74
78313;BME280;67568;47.438;21.408;2023-04-24T04:21:25;99883.53;;;10.42;65.02
78313;BME280;67568;47.438;21.408;2023-04-24T04:23:52;99882.41;;;10.43;66.46
78313;BME280;67568;47.438;21.408;2023-04-24T04:26:19;99885.28;;;10.38;65.51
78313;BME280;67568;47.438;21.408;2023-04-24T04:28:45;99890.00;;;10.37;64.45
78313;BME280;67568;47.438;21.408;2023-04-24T04:31:12;99884.16;;;10.61;64.80
78313;BME280;67568;47.438;21.408;2023-04-24T04:33:38;99888.72;;;10.79;64.46
78313;BME280;67568;47.438;21.408;2023-04-24T04:36:05;99890.09;;;10.91;64.61
78313;BME280;67568;47.438;21.408;2023-04-24T04:38:32;99888.44;;;10.90;64.79
78313;BME280;67568;47.438;21.408;2023-04-24T04:40:58;99883.88;;;10.85;64.37
78313;BME280;67568;47.438;21.408;2023-04-24T04:43:25;99889.22;;;10.82;63.69
78313;BME280;67568;47.438;21.408;2023-04-24T04:45:52;99890.34;;;10.80;63.98
78313;BME280;67568;47.438;21.408;2023-04-24T04:48:19;99887.91;;;10.79;63.61
78313;BME280;67568;47.438;21.408;2023-04-24T04:50:45;99888.59;;;10.85;63.07
78313;BME280;67568;47.438;21.408;2023-04-24T04:53:12;99895.06;;;11.02;63.62
78313;BME280;67568;47.438;21.408;2023-04-24T04:55:39;99889.56;;;11.42;62.94
78313;BME280;67568;47.438;21.408;2023-04-24T04:58:05;99888.75;;;11.82;61.66
78313;BME280;67568;47.438;21.408;2023-04-24T05:00:32;99883.13;;;12.04;60.43
78313;BME280;67568;47.438;21.408;2023-04-24T05:03:01;99888.06;;;12.16;59.54
78313;BME280;67568;47.438;21.408;2023-04-24T05:05:45;99883.50;;;12.46;59.74
78313;BME280;67568;47.438;21.408;2023-04-24T05:08:12;99882.66;;;12.72;59.60
78313;BME280;67568;47.438;21.408;2023-04-24T05:10:52;99881.88;;;12.63;58.12
78313;BME280;67568;47.438;21.408;2023-04-24T05:13:18;99888.72;;;12.91;57.90
78313;BME280;67568;47.438;21.408;2023-04-24T05:16:01;99889.66;;;13.13;57.73
78313;BME280;67568;47.438;21.408;2023-04-24T05:18:28;99894.84;;;13.23;57.37
78313;BME280;67568;47.438;21.408;2023-04-24T05:20:54;99886.63;;;13.53;56.09
78313;BME280;67568;47.438;21.408;2023-04-24T05:23:21;99892.66;;;13.55;57.19
78313;BME280;67568;47.438;21.408;2023-04-24T05:25:47;99888.38;;;13.95;55.97
78313;BME280;67568;47.438;21.408;2023-04-24T05:28:14;99890.59;;;14.11;55.71
78313;BME280;67568;47.438;21.408;2023-04-24T05:30:41;99886.88;;;14.28;54.40
78313;BME280;67568;47.438;21.408;2023-04-24T05:33:07;99896.03;;;14.58;54.10
78313;BME280;67568;47.438;21.408;2023-04-24T05:35:36;99894.94;;;15.04;54.04
78313;BME280;67568;47.438;21.408;2023-04-24T05:38:06;99894.22;;;15.28;52.99
78313;BME280;67568;47.438;21.408;2023-04-24T05:40:33;99894.03;;;15.58;52.68
78313;BME280;67568;47.438;21.408;2023-04-24T05:43:02;99899.44;;;15.88;51.25
78313;BME280;67568;47.438;21.408;2023-04-24T05:45:31;99898.28;;;16.01;51.29
78313;BME280;67568;47.438;21.408;2023-04-24T05:48:01;99884.47;;;16.45;49.12
78313;BME280;67568;47.438;21.408;2023-04-24T05:50:35;99879.25;;;16.72;49.75
78313;BME280;67568;47.438;21.408;2023-04-24T05:53:03;99882.44;;;16.98;49.06
78313;BME280;67568;47.438;21.408;2023-04-24T05:55:31;99873.69;;;17.28;48.73
78313;BME280;67568;47.438;21.408;2023-04-24T05:57:58;99866.81;;;17.73;48.27
78313;BME280;67568;47.438;21.408;2023-04-24T06:00:45;99875.66;;;18.07;46.69
78313;BME280;67568;47.438;21.408;2023-04-24T06:03:11;99874.72;;;18.18;45.97
78313;BME280;67568;47.438;21.408;2023-04-24T06:05:38;99878.75;;;18.02;46.27
78313;BME280;67568;47.438;21.408;2023-04-24T06:08:05;99874.16;;;18.29;46.47
78313;BME280;67568;47.438;21.408;2023-04-24T06:10:32;99867.94;;;18.55;45.00
78313;BME280;67568;47.438;21.408;2023-04-24T06:13:01;99873.94;;;18.53;45.13
78313;BME280;67568;47.438;21.408;2023-04-24T06:15:29;99884.94;;;18.27;45.14
78313;BME280;67568;47.438;21.408;2023-04-24T06:17:59;99873.31;;;17.61;45.64
78313;BME280;67568;47.438;21.408;2023-04-24T06:20:26;99877.03;;;17.81;46.69
78313;BME280;67568;47.438;21.408;2023-04-24T06:22:53;99879.28;;;17.44;47.33
78313;BME280;67568;47.438;21.408;2023-04-24T06:25:25;99878.94;;;17.77;47.72
78313;BME280;67568;47.438;21.408;2023-04-24T06:27:52;99873.56;;;17.24;46.96
78313;BME280;67568;47.438;21.408;2023-04-24T06:30:19;99881.72;;;17.45;47.56
78313;BME280;67568;47.438;21.408;2023-04-24T06:32:45;99873.75;;;17.47;47.00
78313;BME280;67568;47.438;21.408;2023-04-24T06:35:12;99875.38;;;17.17;47.13
78313;BME280;67568;47.438;21.408;2023-04-24T06:37:42;99864.22;;;17.04;47.31
78313;BME280;67568;47.438;21.408;2023-04-24T06:40:09;99875.25;;;17.13;48.89
78313;BME280;67568;47.438;21.408;2023-04-24T06:42:38;99880.25;;;17.20;48.09
78313;BME280;67568;47.438;21.408;2023-04-24T06:45:10;99887.25;;;17.58;47.60
78313;BME280;67568;47.438;21.408;2023-04-24T06:47:39;99889.91;;;17.82;47.21
78313;BME280;67568;47.438;21.408;2023-04-24T06:50:06;99878.00;;;18.20;46.37
78313;BME280;67568;47.438;21.408;2023-04-24T06:52:33;99885.91;;;17.99;47.15
78313;BME280;67568;47.438;21.408;2023-04-24T06:55:06;99883.34;;;17.46;47.16
78313;BME280;67568;47.438;21.408;2023-04-24T06:57:33;99873.00;;;17.19;48.38
78313;BME280;67568;47.438;21.408;2023-04-24T06:59:59;99877.56;;;17.39;49.33
78313;BME280;67568;47.438;21.408;2023-04-24T07:02:27;99875.81;;;17.19;48.62
78313;BME280;67568;47.438;21.408;2023-04-24T07:04:57;99869.22;;;17.11;48.76
78313;BME280;67568;47.438;21.408;2023-04-24T07:07:27;99871.00;;;17.03;48.99
78313;BME280;67568;47.438;21.408;2023-04-24T07:09:53;99874.91;;;17.15;49.16
78313;BME280;67568;47.438;21.408;2023-04-24T07:12:34;99867.41;;;17.19;49.24
78313;BME280;67568;47.438;21.408;2023-04-24T07:15:01;99881.41;;;17.19;50.02
78313;BME280;67568;47.438;21.408;2023-04-24T07:17:27;99867.13;;;17.08;49.93
78313;BME280;67568;47.438;21.408;2023-04-24T07:19:57;99876.09;;;16.85;49.81
78313;BME280;67568;47.438;21.408;2023-04-24T07:22:23;99877.44;;;16.63;49.12
78313;BME280;67568;47.438;21.408;2023-04-24T07:24:52;99878.19;;;16.48;49.09
78313;BME280;67568;47.438;21.408;2023-04-24T07:27:21;99877.03;;;16.37;49.77
78313;BME280;67568;47.438;21.408;2023-04-24T07:29:51;99869.59;;;16.29;49.71
78313;BME280;67568;47.438;21.408;2023-04-24T07:32:17;99864.47;;;16.31;50.84
78313;BME280;67568;47.438;21.408;2023-04-24T07:34:44;99876.91;;;16.33;50.16
78313;BME280;67568;47.438;21.408;2023-04-24T07:37:11;99884.53;;;16.21;51.05
78313;BME280;67568;47.438;21.408;2023-04-24T07:39:38;99882.19;;;16.23;51.47
78313;BME280;67568;47.438;21.408;2023-04-24T07:42:05;99876.59;;;16.23;50.35
78313;BME280;67568;47.438;21.408;2023-04-24T07:44:34;99887.53;;;16.15;52.11
78313;BME280;67568;47.438;21.408;2023-04-24T07:47:03;99885.59;;;16.04;51.04
78313;BME280;67568;47.438;21.408;2023-04-24T07:49:33;99872.44;;;15.92;50.08
78313;BME280;67568;47.438;21.408;2023-04-24T07:52:25;99883.03;;;15.99;51.23
78313;BME280;67568;47.438;21.408;2023-04-24T07:54:57;99881.03;;;15.87;50.70
78313;BME280;67568;47.438;21.408;2023-04-24T07:57:25;99894.78;;;15.92;51.58
78313;BME280;67568;47.438;21.408;2023-04-24T08:00:03;99875.81;;;15.98;50.27
78313;BME280;67568;47.438;21.408;2023-04-24T08:02:33;99885.56;;;16.16;48.78
78313;BME280;67568;47.438;21.408;2023-04-24T08:05:01;99882.06;;;16.19;49.91
78313;BME280;67568;47.438;21.408;2023-04-24T08:07:30;99888.09;;;16.33;49.89
78313;BME280;67568;47.438;21.408;2023-04-24T08:09:58;99885.63;;;16.44;49.39
78313;BME280;67568;47.438;21.408;2023-04-24T08:12:25;99892.41;;;16.43;51.15
78313;BME280;67568;47.438;21.408;2023-04-24T08:14:54;99894.28;;;16.27;51.15
78313;BME280;67568;47.438;21.408;2023-04-24T08:17:21;99888.97;;;15.97;52.84
78313;BME280;67568;47.438;21.408;2023-04-24T08:19:53;99896.66;;;16.00;52.76
78313;BME280;67568;47.438;21.408;2023-04-24T08:22:21;99887.47;;;16.00;51.91
78313;BME280;67568;47.438;21.408;2023-04-24T08:24:51;99893.25;;;15.82;53.02
78313;BME280;67568;47.438;21.408;2023-04-24T08:27:21;99898.97;;;15.73;54.27
78313;BME280;67568;47.438;21.408;2023-04-24T08:29:57;99901.06;;;15.77;54.42
78313;BME280;67568;47.438;21.408;2023-04-24T08:32:28;99894.31;;;15.78;54.33
78313;BME280;67568;47.438;21.408;2023-04-24T08:35:09;99893.72;;;15.84;54.66
78313;BME280;67568;47.438;21.408;2023-04-24T08:37:38;99902.22;;;15.76;55.07
78313;BME280;67568;47.438;21.408;2023-04-24T08:40:19;99907.34;;;15.73;55.64
78313;BME280;67568;47.438;21.408;2023-04-24T08:42:57;99898.81;;;15.58;55.94
78313;BME280;67568;47.438;21.408;2023-04-24T08:45:25;99903.81;;;15.52;57.99
78313;BME280;67568;47.438;21.408;2023-04-24T08:47:55;99907.94;;;15.34;58.45
78313;BME280;67568;47.438;21.408;2023-04-24T08:50:24;99904.81;;;15.35;57.81
78313;BME280;67568;47.438;21.408;2023-04-24T08:52:52;99910.28;;;15.32;58.59
78313;BME280;67568;47.438;21.408;2023-04-24T08:55:33;99917.59;;;15.36;58.82
78313;BME280;67568;47.438;21.408;2023-04-24T08:58:02;99908.63;;;15.30;60.20
78313;BME280;67568;47.438;21.408;2023-04-24T09:00:30;99898.63;;;15.29;59.46
78313;BME280;67568;47.438;21.408;2023-04-24T09:03:00;99902.41;;;15.46;59.18
78313;BME280;67568;47.438;21.408;2023-04-24T09:05:33;99911.13;;;15.57;59.36
78313;BME280;67568;47.438;21.408;2023-04-24T09:08:01;99915.78;;;15.52;60.43
78313;BME280;67568;47.438;21.408;2023-04-24T09:10:29;99911.81;;;15.53;60.51
78313;BME280;67568;47.438;21.408;2023-04-24T09:12:59;99917.88;;;15.56;60.56
78313;BME280;67568;47.438;21.408;2023-04-24T09:15:27;99909.97;;;15.45;60.17
78313;BME280;67568;47.438;21.408;2023-04-24T09:17:54;99927.44;;;15.55;60.20
78313;BME280;67568;47.438;21.408;2023-04-24T09:20:20;99921.47;;;15.56;59.79
78313;BME280;67568;47.438;21.408;2023-04-24T09:22:57;99932.16;;;15.42;61.16
78313;BME280;67568;47.438;21.408;2023-04-24T09:25:33;99931.06;;;15.22;63.79
78313;BME280;67568;47.438;21.408;2023-04-24T09:28:04;99936.75;;;14.92;66.83
78313;BME280;67568;47.438;21.408;2023-04-24T09:30:31;99929.28;;;14.63;68.20
78313;BME280;67568;47.438;21.408;2023-04-24T09:33:16;99915.34;;;14.33;71.84
78313;BME280;67568;47.438;21.408;2023-04-24T09:35:54;99931.25;;;14.33;71.19
78313;BME280;67568;47.438;21.408;2023-04-24T09:38:36;99912.06;;;14.10;73.16
78313;BME280;67568;47.438;21.408;2023-04-24T09:41:07;99910.94;;;14.03;72.98
78313;BME280;67568;47.438;21.408;2023-04-24T09:43:36;99912.88;;;14.11;73.56
78313;BME280;67568;47.438;21.408;2023-04-24T09:46:07;99916.63;;;14.15;73.32
78313;BME280;67568;47.438;21.408;2023-04-24T09:48:36;99915.66;;;14.11;75.55
78313;BME280;67568;47.438;21.408;2023-04-24T09:51:04;99921.13;;;13.99;74.89
78313;BME280;67568;47.438;21.408;2023-04-24T09:53:33;99914.31;;;13.87;77.14
78313;BME280;67568;47.438;21.408;2023-04-24T09:56:09;99914.84;;;13.81;78.12
78313;BME280;67568;47.438;21.408;2023-04-24T09:58:36;99921.94;;;13.69;79.13
78313;BME280;67568;47.438;21.408;2023-04-24T10:01:32;99912.97;;;13.55;79.88
78313;BME280;67568;47.438;21.408;2023-04-24T10:03:59;99913.97;;;13.50;81.31
78313;BME280;67568;47.438;21.408;2023-04-24T10:06:35;99907.91;;;13.48;80.60
78313;BME280;67568;47.438;21.408;2023-04-24T10:09:02;99918.75;;;13.41;81.26
78313;BME280;67568;47.438;21.408;2023-04-24T10:11:29;99915.19;;;13.32;81.43
78313;BME280;67568;47.438;21.408;2023-04-24T10:13:57;99927.28;;;13.36;81.43
78313;BME280;67568;47.438;21.408;2023-04-24T10:16:27;99921.84;;;13.40;83.78
78313;BME280;67568;47.438;21.408;2023-04-24T10:18:59;99924.31;;;13.41;84.12
78313;BME280;67568;47.438;21.408;2023-04-24T10:21:29;99917.75;;;13.46;82.97
78313;BME280;67568;47.438;21.408;2023-04-24T10:23:59;99915.31;;;13.44;82.58
78313;BME280;67568;47.438;21.408;2023-04-24T10:26:27;99917.78;;;13.37;82.69
78313;BME280;67568;47.438;21.408;2023-04-24T10:28:54;99917.47;;;13.30;82.87
78313;BME280;67568;47.438;21.408;2023-04-24T10:31:24;99915.66;;;13.25;82.95
78313;BME280;67568;47.438;21.408;2023-04-24T10:33:52;99918.78;;;13.24;83.97
78313;BME280;67568;47.438;21.408;2023-04-24T10:36:23;99914.53;;;13.26;83.72
78313;BME280;67568;47.438;21.408;2023-04-24T10:38:56;99913.69;;;13.17;82.27
78313;BME280;67568;47.438;21.408;2023-04-24T10:41:26;99922.69;;;13.23;83.11
78313;BME280;67568;47.438;21.408;2023-04-24T10:44:12;99927.94;;;13.33;82.90
78313;BME280;67568;47.438;21.408;2023-04-24T10:46:45;99918.59;;;13.38;81.34
78313;BME280;67568;47.438;21.408;2023-04-24T10:49:12;99921.81;;;13.48;81.26
78313;BME280;67568;47.438;21.408;2023-04-24T10:51:52;99920.31;;;13.60;82.51
78313;BME280;67568;47.438;21.408;2023-04-24T10:54:34;99915.56;;;13.60;82.07
78313;BME280;67568;47.438;21.408;2023-04-24T10:59:49;99908.09;;;13.52;81.49
78313;BME280;67568;47.438;21.408;2023-04-24T11:02:38;99911.50;;;13.58;81.09
78313;BME280;67568;47.438;21.408;2023-04-24T11:05:09;99905.66;;;13.42;81.02
78313;BME280;67568;47.438;21.408;2023-04-24T11:08:14;99907.13;;;13.39;81.06
78313;BME280;67568;47.438;21.408;2023-04-24T11:13:23;99914.53;;;13.35;81.59
78313;BME280;67568;47.438;21.408;2023-04-24T11:19:08;99924.63;;;13.40;82.27
78313;BME280;67568;47.438;21.408;2023-04-24T11:21:40;99914.03;;;13.33;81.88
78313;BME280;67568;47.438;21.408;2023-04-24T11:27:13;99918.94;;;13.36;82.97
78313;BME280;67568;47.438;21.408;2023-04-24T11:29:49;99918.59;;;13.38;83.19
78313;BME280;67568;47.438;21.408;2023-04-24T11:34:57;99911.91;;;13.30;82.20
78313;BME280;67568;47.438;21.408;2023-04-24T11:37:27;99907.16;;;13.31;83.40
78313;BME280;67568;47.438;21.408;2023-04-24T11:39:57;99902.75;;;13.30;82.29
78313;BME280;67568;47.438;21.408;2023-04-24T11:42:27;99905.84;;;13.28;82.37
78313;BME280;67568;47.438;21.408;2023-04-24T11:44:57;99907.97;;;13.31;82.41
78313;BME280;67568;47.438;21.408;2023-04-24T11:47:53;99907.97;;;13.31;82.73
78313;BME280;67568;47.438;21.408;2023-04-24T11:50:25;99905.34;;;13.17;82.84
78313;BME280;67568;47.438;21.408;2023-04-24T11:52:57;99894.84;;;13.23;82.83
78313;BME280;67568;47.438;21.408;2023-04-24T11:55:30;99888.50;;;13.14;83.46
78313;BME280;67568;47.438;21.408;2023-04-24T11:57:58;99867.91;;;13.06;84.06
78313;BME280;67568;47.438;21.408;2023-04-24T12:00:32;99862.22;;;12.94;84.52
78313;BME280;67568;47.438;21.408;2023-04-24T12:03:11;99868.13;;;12.92;85.26
78313;BME280;67568;47.438;21.408;2023-04-24T12:05:41;99872.69;;;12.88;85.43
78313;BME280;67568;47.438;21.408;2023-04-24T12:08:29;99877.91;;;12.98;85.39
78313;BME280;67568;47.438;21.408;2023-04-24T12:11:07;99857.81;;;12.84;85.16
78313;BME280;67568;47.438;21.408;2023-04-24T12:13:39;99872.81;;;13.00;85.57
78313;BME280;67568;47.438;21.408;2023-04-24T12:16:06;99863.66;;;13.00;85.65
78313;BME280;67568;47.438;21.408;2023-04-24T12:18:43;99867.41;;;13.13;87.13
78313;BME280;67568;47.438;21.408;2023-04-24T12:21:25;99867.41;;;13.13;86.51
78313;BME280;67568;47.438;21.408;2023-04-24T12:23:57;99858.44;;;13.07;85.70
78313;BME280;67568;47.438;21.408;2023-04-24T12:26:23;99862.50;;;13.10;86.37
78313;BME280;67568;47.438;21.408;2023-04-24T12:29:04;99871.50;;;13.15;86.50
78313;BME280;67568;47.438;21.408;2023-04-24T12:31:37;99862.00;;;13.16;87.05
78313;BME280;67568;47.438;21.408;2023-04-24T12:34:17;99863.47;;;13.14;86.89
78313;BME280;67568;47.438;21.408;2023-04-24T12:36:47;99862.63;;;13.22;87.58
78313;BME280;67568;47.438;21.408;2023-04-24T12:39:20;99864.47;;;13.18;87.93
78313;BME280;67568;47.438;21.408;2023-04-24T12:41:58;99856.25;;;13.21;86.72
78313;BME280;67568;47.438;21.408;2023-04-24T12:45:25;99859.84;;;13.22;88.12
78313;BME280;67568;47.438;21.408;2023-04-24T12:47:46;99844.34;;;13.12;88.00
78313;BME280;67568;47.438;21.408;2023-04-24T12:50:20;99853.16;;;13.14;87.75
78313;BME280;67568;47.438;21.408;2023-04-24T12:52:47;99847.59;;;13.14;89.71
78313;BME280;67568;47.438;21.408;2023-04-24T12:55:14;99855.44;;;13.21;90.65
78313;BME280;67568;47.438;21.408;2023-04-24T12:57:40;99854.78;;;13.24;88.71
78313;BME280;67568;47.438;21.408;2023-04-24T13:00:08;99848.06;;;13.25;88.02
78313;BME280;67568;47.438;21.408;2023-04-24T13:02:35;99845.63;;;13.23;88.33
78313;BME280;67568;47.438;21.408;2023-04-24T13:05:05;99842.00;;;13.32;89.21
78313;BME280;67568;47.438;21.408;2023-04-24T13:07:32;99842.97;;;13.36;88.60
78313;BME280;67568;47.438;21.408;2023-04-24T13:09:59;99836.13;;;13.33;88.00
78313;BME280;67568;47.438;21.408;2023-04-24T13:12:26;99825.94;;;13.37;87.43
78313;BME280;67568;47.438;21.408;2023-04-24T13:14:53;99822.47;;;13.40;87.67
78313;BME280;67568;47.438;21.408;2023-04-24T13:17:40;99817.50;;;13.55;88.02